sensor_id;sensor_type;location;lat;lon;timestamp;pressure;altitude;pressure_sealevel;temperature;humidity
64230;BME280;50547;49.498;0.092;2023-05-19T00:01:05;1023.70;;;11.37;75.30
64230;BME280;50547;49.498;0.092;2023-05-19T00:03:35;1023.62;;;11.41;75.31
64230;BME280;50547;49.498;0.092;2023-05-19T00:06:06;1023.58;;;11.41;75.51
64230;BME280;50547;49.498;0.092;2023-05-19T00:08:37;1023.54;;;11.39;76.12
64230;BME280;50547;49.498;0.092;2023-05-19T00:11:07;1023.50;;;11.45;76.25
64230;BME280;50547;49.498;0.092;2023-05-19T00:13:36;1023.52;;;11.47;76.71
64230;BME280;50547;49.498;0.092;2023-05-19T00:16:06;1023.50;;;11.50;76.81
64230;BME280;50547;49.498;0.092;2023-05-19T00:18:35;1023.52;;;11.52;77.21
64230;BME280;50547;49.498;0.092;2023-05-19T00:21:05;1023.56;;;11.37;78.12
64230;BME280;50547;49.498;0.092;2023-05-19T00:23:34;1023.60;;;11.23;79.19
64230;BME280;50547;49.498;0.092;2023-05-19T00:26:03;1023.62;;;11.19;79.69
64230;BME280;50547;49.498;0.092;2023-05-19T00:28:32;1023.64;;;11.20;79.61
64230;BME280;50547;49.498;0.092;2023-05-19T00:31:03;1023.64;;;11.22;79.73
64230;BME280;50547;49.498;0.092;2023-05-19T00:33:33;1023.66;;;11.30;79.48
64230;BME280;50547;49.498;0.092;2023-05-19T00:36:02;1023.66;;;11.24;80.07
64230;BME280;50547;49.498;0.092;2023-05-19T00:38:34;1023.64;;;11.17;80.55
64230;BME280;50547;49.498;0.092;2023-05-19T00:41:05;1023.68;;;11.05;81.55
64230;BME280;50547;49.498;0.092;2023-05-19T00:43:34;1023.66;;;10.84;82.88
64230;BME280;50547;49.498;0.092;2023-05-19T00:46:04;1023.60;;;10.95;82.17
64230;BME280;50547;49.498;0.092;2023-05-19T00:48:33;1023.56;;;11.05;81.73
64230;BME280;50547;49.498;0.092;2023-05-19T00:51:03;1023.58;;;11.09;81.61
64230;BME280;50547;49.498;0.092;2023-05-19T00:53:33;1023.54;;;11.18;81.16
64230;BME280;50547;49.498;0.092;2023-05-19T00:56:03;1023.54;;;11.08;81.98
64230;BME280;50547;49.498;0.092;2023-05-19T00:58:33;1023.54;;;11.05;82.24
64230;BME280;50547;49.498;0.092;2023-05-19T01:01:04;1023.56;;;11.00;82.60
64230;BME280;50547;49.498;0.092;2023-05-19T01:03:34;1023.52;;;11.15;81.77
64230;BME280;50547;49.498;0.092;2023-05-19T01:06:03;1023.54;;;11.26;81.13
64230;BME280;50547;49.498;0.092;2023-05-19T01:08:34;1023.54;;;11.25;81.57
64230;BME280;50547;49.498;0.092;2023-05-19T01:11:04;1023.42;;;11.35;81.12
64230;BME280;50547;49.498;0.092;2023-05-19T01:13:34;1023.30;;;11.46;80.71
64230;BME280;50547;49.498;0.092;2023-05-19T01:16:08;1023.32;;;11.49;80.67
64230;BME280;50547;49.498;0.092;2023-05-19T01:18:46;1023.28;;;11.53;80.58
64230;BME280;50547;49.498;0.092;2023-05-19T01:21:35;1023.28;;;11.55;80.37
64230;BME280;50547;49.498;0.092;2023-05-19T01:24:22;1023.24;;;11.50;80.68
64230;BME280;50547;49.498;0.092;2023-05-19T01:27:08;1023.24;;;11.43;81.03
64230;BME280;50547;49.498;0.092;2023-05-19T01:32:29;1023.16;;;11.42;80.80
64230;BME280;50547;49.498;0.092;2023-05-19T01:34:56;1023.14;;;11.41;80.63
64230;BME280;50547;49.498;0.092;2023-05-19T01:37:26;1023.14;;;11.34;81.06
64230;BME280;50547;49.498;0.092;2023-05-19T01:39:56;1023.16;;;11.37;80.77
64230;BME280;50547;49.498;0.092;2023-05-19T01:42:26;1023.14;;;11.34;80.84
64230;BME280;50547;49.498;0.092;2023-05-19T01:44:52;1023.12;;;11.27;81.10
64230;BME280;50547;49.498;0.092;2023-05-19T01:47:22;1023.16;;;11.26;81.12
64230;BME280;50547;49.498;0.092;2023-05-19T01:49:51;1023.12;;;11.23;81.12
64230;BME280;50547;49.498;0.092;2023-05-19T01:52:20;1023.20;;;11.18;81.27
64230;BME280;50547;49.498;0.092;2023-05-19T01:54:49;1023.18;;;11.08;81.92
64230;BME280;50547;49.498;0.092;2023-05-19T01:57:26;1023.18;;;11.07;81.83
64230;BME280;50547;49.498;0.092;2023-05-19T02:00:04;1023.18;;;11.14;81.30
64230;BME280;50547;49.498;0.092;2023-05-19T02:02:42;1023.18;;;11.13;81.30
64230;BME280;50547;49.498;0.092;2023-05-19T02:05:21;1023.22;;;11.04;81.89
64230;BME280;50547;49.498;0.092;2023-05-19T02:07:57;1023.22;;;10.89;82.78
64230;BME280;50547;49.498;0.092;2023-05-19T02:10:29;1023.18;;;10.99;81.92
64230;BME280;50547;49.498;0.092;2023-05-19T02:13:03;1023.16;;;11.00;82.01
64230;BME280;50547;49.498;0.092;2023-05-19T02:15:39;1023.14;;;11.02;81.84
64230;BME280;50547;49.498;0.092;2023-05-19T02:18:09;1023.14;;;10.96;82.26
64230;BME280;50547;49.498;0.092;2023-05-19T02:20:36;1023.16;;;10.95;82.44
64230;BME280;50547;49.498;0.092;2023-05-19T02:23:05;1023.12;;;10.97;82.25
64230;BME280;50547;49.498;0.092;2023-05-19T02:25:35;1023.02;;;10.96;82.28
64230;BME280;50547;49.498;0.092;2023-05-19T02:28:04;1022.99;;;10.98;82.03
64230;BME280;50547;49.498;0.092;2023-05-19T02:30:33;1022.99;;;10.94;82.38
64230;BME280;50547;49.498;0.092;2023-05-19T02:32:59;1022.97;;;11.01;81.89
64230;BME280;50547;49.498;0.092;2023-05-19T02:35:28;1022.99;;;10.96;82.25
64230;BME280;50547;49.498;0.092;2023-05-19T02:37:57;1022.97;;;10.95;82.52
64230;BME280;50547;49.498;0.092;2023-05-19T02:40:23;1022.97;;;10.95;82.54
64230;BME280;50547;49.498;0.092;2023-05-19T02:42:53;1022.93;;;10.96;82.44
64230;BME280;50547;49.498;0.092;2023-05-19T02:45:22;1022.97;;;10.97;82.31
64230;BME280;50547;49.498;0.092;2023-05-19T02:47:47;1022.95;;;10.91;82.65
64230;BME280;50547;49.498;0.092;2023-05-19T02:50:16;1023.00;;;10.94;82.37
64230;BME280;50547;49.498;0.092;2023-05-19T02:52:46;1022.99;;;10.87;82.83
64230;BME280;50547;49.498;0.092;2023-05-19T02:55:11;1022.97;;;10.89;82.80
64230;BME280;50547;49.498;0.092;2023-05-19T02:57:40;1022.95;;;10.92;82.55
64230;BME280;50547;49.498;0.092;2023-05-19T03:00:10;1023.02;;;10.90;82.76
64230;BME280;50547;49.498;0.092;2023-05-19T03:02:39;1023.00;;;10.89;82.81
64230;BME280;50547;49.498;0.092;2023-05-19T03:05:09;1022.95;;;10.83;83.12
64230;BME280;50547;49.498;0.092;2023-05-19T03:07:35;1022.95;;;10.88;82.64
64230;BME280;50547;49.498;0.092;2023-05-19T03:10:05;1022.95;;;10.78;83.27
64230;BME280;50547;49.498;0.092;2023-05-19T03:12:31;1022.95;;;10.78;83.14
64230;BME280;50547;49.498;0.092;2023-05-19T03:15:01;1022.99;;;10.77;83.12
64230;BME280;50547;49.498;0.092;2023-05-19T03:17:30;1023.04;;;10.72;83.38
64230;BME280;50547;49.498;0.092;2023-05-19T03:19:55;1023.04;;;10.61;83.80
64230;BME280;50547;49.498;0.092;2023-05-19T03:22:24;1023.04;;;10.69;83.37
64230;BME280;50547;49.498;0.092;2023-05-19T03:24:54;1023.04;;;10.62;83.68
64230;BME280;50547;49.498;0.092;2023-05-19T03:27:19;1022.99;;;10.58;83.81
64230;BME280;50547;49.498;0.092;2023-05-19T03:29:48;1022.95;;;10.61;83.56
64230;BME280;50547;49.498;0.092;2023-05-19T03:32:18;1022.97;;;10.62;83.35
64230;BME280;50547;49.498;0.092;2023-05-19T03:34:43;1022.93;;;10.58;83.61
64230;BME280;50547;49.498;0.092;2023-05-19T03:37:13;1023.04;;;10.61;83.52
64230;BME280;50547;49.498;0.092;2023-05-19T03:39:42;1023.02;;;10.53;83.87
64230;BME280;50547;49.498;0.092;2023-05-19T03:42:11;1022.97;;;10.57;83.59
64230;BME280;50547;49.498;0.092;2023-05-19T03:44:40;1022.99;;;10.58;83.46
64230;BME280;50547;49.498;0.092;2023-05-19T03:47:10;1022.97;;;10.55;83.77
64230;BME280;50547;49.498;0.092;2023-05-19T03:49:35;1023.00;;;10.49;84.06
64230;BME280;50547;49.498;0.092;2023-05-19T03:52:05;1022.97;;;10.51;83.94
64230;BME280;50547;49.498;0.092;2023-05-19T03:54:34;1022.99;;;10.54;83.62
64230;BME280;50547;49.498;0.092;2023-05-19T03:57:00;1022.97;;;10.53;83.69
64230;BME280;50547;49.498;0.092;2023-05-19T03:59:30;1023.00;;;10.46;84.18
64230;BME280;50547;49.498;0.092;2023-05-19T04:01:55;1022.99;;;10.49;83.95
64230;BME280;50547;49.498;0.092;2023-05-19T04:04:25;1022.97;;;10.48;83.93
64230;BME280;50547;49.498;0.092;2023-05-19T04:06:54;1023.00;;;10.40;84.30
64230;BME280;50547;49.498;0.092;2023-05-19T04:09:23;1022.97;;;10.36;84.46
64230;BME280;50547;49.498;0.092;2023-05-19T04:11:53;1022.97;;;10.42;83.82
64230;BME280;50547;49.498;0.092;2023-05-19T04:14:22;1022.95;;;10.44;83.68
64230;BME280;50547;49.498;0.092;2023-05-19T04:16:51;1022.95;;;10.40;84.19
64230;BME280;50547;49.498;0.092;2023-05-19T04:19:20;1022.87;;;10.39;84.31
64230;BME280;50547;49.498;0.092;2023-05-19T04:21:50;1022.91;;;10.32;84.91
64230;BME280;50547;49.498;0.092;2023-05-19T04:24:19;1022.99;;;10.40;84.49
64230;BME280;50547;49.498;0.092;2023-05-19T04:26:48;1022.93;;;10.43;84.15
64230;BME280;50547;49.498;0.092;2023-05-19T04:29:17;1022.89;;;10.47;84.01
64230;BME280;50547;49.498;0.092;2023-05-19T04:31:46;1022.99;;;10.46;84.26
64230;BME280;50547;49.498;0.092;2023-05-19T04:34:15;1022.97;;;10.44;84.40
64230;BME280;50547;49.498;0.092;2023-05-19T04:36:45;1022.95;;;10.52;84.10
64230;BME280;50547;49.498;0.092;2023-05-19T04:39:14;1023.00;;;10.53;84.23
64230;BME280;50547;49.498;0.092;2023-05-19T04:41:43;1023.06;;;10.52;84.53
64230;BME280;50547;49.498;0.092;2023-05-19T04:44:12;1023.08;;;10.56;84.43
64230;BME280;50547;49.498;0.092;2023-05-19T04:46:41;1023.02;;;10.53;84.53
64230;BME280;50547;49.498;0.092;2023-05-19T04:49:10;1023.08;;;10.52;84.46
64230;BME280;50547;49.498;0.092;2023-05-19T04:51:40;1023.08;;;10.44;84.93
64230;BME280;50547;49.498;0.092;2023-05-19T04:54:09;1023.06;;;10.50;84.67
64230;BME280;50547;49.498;0.092;2023-05-19T04:56:38;1023.06;;;10.57;84.23
64230;BME280;50547;49.498;0.092;2023-05-19T04:59:07;1023.14;;;10.65;83.76
64230;BME280;50547;49.498;0.092;2023-05-19T05:01:36;1023.12;;;10.70;83.59
64230;BME280;50547;49.498;0.092;2023-05-19T05:04:06;1023.10;;;10.85;82.96
64230;BME280;50547;49.498;0.092;2023-05-19T05:06:35;1023.06;;;10.85;83.20
64230;BME280;50547;49.498;0.092;2023-05-19T05:09:04;1023.06;;;10.94;82.76
64230;BME280;50547;49.498;0.092;2023-05-19T05:11:34;1023.06;;;10.98;82.68
64230;BME280;50547;49.498;0.092;2023-05-19T05:14:04;1023.16;;;11.01;82.73
64230;BME280;50547;49.498;0.092;2023-05-19T05:16:34;1023.18;;;11.03;82.95
64230;BME280;50547;49.498;0.092;2023-05-19T05:19:04;1023.14;;;11.25;81.74
64230;BME280;50547;49.498;0.092;2023-05-19T05:21:33;1023.10;;;11.34;81.33
64230;BME280;50547;49.498;0.092;2023-05-19T05:24:03;1023.10;;;11.31;81.82
64230;BME280;50547;49.498;0.092;2023-05-19T05:26:33;1023.04;;;11.45;81.11
64230;BME280;50547;49.498;0.092;2023-05-19T05:29:03;1023.06;;;11.50;81.10
64230;BME280;50547;49.498;0.092;2023-05-19T05:31:32;1022.97;;;11.57;80.70
64230;BME280;50547;49.498;0.092;2023-05-19T05:34:01;1023.00;;;11.67;80.84
64230;BME280;50547;49.498;0.092;2023-05-19T05:36:30;1022.99;;;11.69;80.78
64230;BME280;50547;49.498;0.092;2023-05-19T05:39:00;1022.91;;;11.63;81.30
64230;BME280;50547;49.498;0.092;2023-05-19T05:41:29;1022.91;;;11.66;81.42
64230;BME280;50547;49.498;0.092;2023-05-19T05:43:58;1022.93;;;11.78;80.75
64230;BME280;50547;49.498;0.092;2023-05-19T05:46:27;1022.95;;;11.79;80.89
64230;BME280;50547;49.498;0.092;2023-05-19T05:48:57;1022.95;;;12.06;79.81
64230;BME280;50547;49.498;0.092;2023-05-19T05:51:26;1022.95;;;12.13;79.75
64230;BME280;50547;49.498;0.092;2023-05-19T05:53:56;1022.97;;;12.16;80.06
64230;BME280;50547;49.498;0.092;2023-05-19T05:56:26;1022.99;;;12.34;79.20
64230;BME280;50547;49.498;0.092;2023-05-19T05:58:55;1022.91;;;12.22;79.95
64230;BME280;50547;49.498;0.092;2023-05-19T06:01:24;1022.99;;;12.24;80.08
64230;BME280;50547;49.498;0.092;2023-05-19T06:03:53;1023.00;;;12.46;78.94
64230;BME280;50547;49.498;0.092;2023-05-19T06:06:23;1023.02;;;12.56;78.77
64230;BME280;50547;49.498;0.092;2023-05-19T06:08:52;1022.99;;;12.48;78.94
64230;BME280;50547;49.498;0.092;2023-05-19T06:11:21;1023.02;;;12.63;78.98
64230;BME280;50547;49.498;0.092;2023-05-19T06:13:50;1023.04;;;12.64;78.52
64230;BME280;50547;49.498;0.092;2023-05-19T06:16:19;1023.02;;;12.81;78.29
64230;BME280;50547;49.498;0.092;2023-05-19T06:18:49;1023.00;;;13.24;76.77
64230;BME280;50547;49.498;0.092;2023-05-19T06:21:18;1022.95;;;13.42;76.20
64230;BME280;50547;49.498;0.092;2023-05-19T06:23:52;1022.99;;;13.15;77.01
64230;BME280;50547;49.498;0.092;2023-05-19T06:26:21;1023.00;;;12.77;78.90
64230;BME280;50547;49.498;0.092;2023-05-19T06:28:50;1022.99;;;13.02;78.01
64230;BME280;50547;49.498;0.092;2023-05-19T06:31:19;1022.91;;;13.26;77.17
64230;BME280;50547;49.498;0.092;2023-05-19T06:33:48;1023.00;;;13.33;76.54
64230;BME280;50547;49.498;0.092;2023-05-19T06:36:18;1023.04;;;13.39;75.42
64230;BME280;50547;49.498;0.092;2023-05-19T06:38:47;1023.08;;;13.37;76.00
64230;BME280;50547;49.498;0.092;2023-05-19T06:41:16;1023.04;;;13.38;75.88
64230;BME280;50547;49.498;0.092;2023-05-19T06:43:45;1023.04;;;13.52;75.57
64230;BME280;50547;49.498;0.092;2023-05-19T06:46:14;1023.12;;;13.48;76.09
64230;BME280;50547;49.498;0.092;2023-05-19T06:48:43;1023.12;;;13.97;73.41
64230;BME280;50547;49.498;0.092;2023-05-19T06:51:13;1023.14;;;13.65;75.21
64230;BME280;50547;49.498;0.092;2023-05-19T06:53:42;1023.14;;;13.39;76.31
64230;BME280;50547;49.498;0.092;2023-05-19T06:56:11;1023.14;;;13.55;75.88
64230;BME280;50547;49.498;0.092;2023-05-19T06:58:40;1023.14;;;13.80;74.50
64230;BME280;50547;49.498;0.092;2023-05-19T07:01:09;1023.14;;;13.96;72.80
64230;BME280;50547;49.498;0.092;2023-05-19T07:03:39;1023.18;;;14.26;72.43
64230;BME280;50547;49.498;0.092;2023-05-19T07:06:23;1023.20;;;14.65;71.25
64230;BME280;50547;49.498;0.092;2023-05-19T07:08:50;1023.18;;;14.93;69.42
64230;BME280;50547;49.498;0.092;2023-05-19T07:11:19;1023.20;;;14.75;70.17
64230;BME280;50547;49.498;0.092;2023-05-19T07:13:48;1023.22;;;14.25;73.70
64230;BME280;50547;49.498;0.092;2023-05-19T07:16:17;1023.28;;;14.39;72.57
64230;BME280;50547;49.498;0.092;2023-05-19T07:18:47;1023.22;;;14.27;72.22
64230;BME280;50547;49.498;0.092;2023-05-19T07:21:16;1023.22;;;14.06;73.64
64230;BME280;50547;49.498;0.092;2023-05-19T07:23:45;1023.30;;;14.13;72.83
64230;BME280;50547;49.498;0.092;2023-05-19T07:26:11;1023.30;;;14.46;71.68
64230;BME280;50547;49.498;0.092;2023-05-19T07:28:40;1023.30;;;14.81;70.11
64230;BME280;50547;49.498;0.092;2023-05-19T07:31:10;1023.22;;;14.93;69.08
64230;BME280;50547;49.498;0.092;2023-05-19T07:33:39;1023.18;;;15.11;69.12
64230;BME280;50547;49.498;0.092;2023-05-19T07:36:08;1023.24;;;15.10;68.44
64230;BME280;50547;49.498;0.092;2023-05-19T07:38:38;1023.26;;;14.89;70.27
64230;BME280;50547;49.498;0.092;2023-05-19T07:41:07;1023.22;;;14.91;71.07
64230;BME280;50547;49.498;0.092;2023-05-19T07:43:36;1023.20;;;15.05;70.27
64230;BME280;50547;49.498;0.092;2023-05-19T07:46:05;1023.26;;;15.28;69.71
64230;BME280;50547;49.498;0.092;2023-05-19T07:48:35;1023.24;;;15.41;67.89
64230;BME280;50547;49.498;0.092;2023-05-19T07:51:05;1023.22;;;15.27;68.62
64230;BME280;50547;49.498;0.092;2023-05-19T07:53:34;1023.22;;;15.67;66.59
64230;BME280;50547;49.498;0.092;2023-05-19T07:56:03;1023.20;;;15.86;65.49
64230;BME280;50547;49.498;0.092;2023-05-19T07:58:33;1023.16;;;15.78;66.31
64230;BME280;50547;49.498;0.092;2023-05-19T08:01:02;1023.14;;;15.74;66.73
64230;BME280;50547;49.498;0.092;2023-05-19T08:03:31;1023.12;;;16.03;66.09
64230;BME280;50547;49.498;0.092;2023-05-19T08:06:00;1023.08;;;15.76;66.77
64230;BME280;50547;49.498;0.092;2023-05-19T08:08:29;1023.08;;;15.62;67.50
64230;BME280;50547;49.498;0.092;2023-05-19T08:11:01;1022.99;;;16.09;65.28
64230;BME280;50547;49.498;0.092;2023-05-19T08:13:30;1023.02;;;16.20;65.03
64230;BME280;50547;49.498;0.092;2023-05-19T08:15:59;1023.02;;;16.16;64.32
64230;BME280;50547;49.498;0.092;2023-05-19T08:18:28;1022.97;;;15.77;66.04
64230;BME280;50547;49.498;0.092;2023-05-19T08:20:57;1022.99;;;15.59;67.58
64230;BME280;50547;49.498;0.092;2023-05-19T08:23:27;1022.91;;;15.85;65.40
64230;BME280;50547;49.498;0.092;2023-05-19T08:25:56;1022.97;;;16.66;62.52
64230;BME280;50547;49.498;0.092;2023-05-19T08:28:25;1022.91;;;17.22;60.40
64230;BME280;50547;49.498;0.092;2023-05-19T08:30:55;1022.83;;;17.41;59.69
64230;BME280;50547;49.498;0.092;2023-05-19T08:33:24;1022.75;;;17.82;58.87
64230;BME280;50547;49.498;0.092;2023-05-19T08:35:54;1022.79;;;17.52;59.61
64230;BME280;50547;49.498;0.092;2023-05-19T08:38:24;1022.69;;;17.61;58.20
64230;BME280;50547;49.498;0.092;2023-05-19T08:40:53;1022.69;;;17.63;57.51
64230;BME280;50547;49.498;0.092;2023-05-19T08:43:22;1022.71;;;18.08;56.44
64230;BME280;50547;49.498;0.092;2023-05-19T08:45:51;1022.69;;;18.46;54.41
64230;BME280;50547;49.498;0.092;2023-05-19T08:48:21;1022.65;;;18.83;53.10
64230;BME280;50547;49.498;0.092;2023-05-19T08:50:57;1022.61;;;18.86;52.19
64230;BME280;50547;49.498;0.092;2023-05-19T08:53:35;1022.69;;;19.12;51.11
64230;BME280;50547;49.498;0.092;2023-05-19T08:56:09;1022.71;;;18.35;53.19
64230;BME280;50547;49.498;0.092;2023-05-19T08:58:40;1022.65;;;18.51;53.90
64230;BME280;50547;49.498;0.092;2023-05-19T09:01:13;1022.56;;;18.77;52.62
64230;BME280;50547;49.498;0.092;2023-05-19T09:03:43;1022.50;;;18.91;50.80
64230;BME280;50547;49.498;0.092;2023-05-19T09:06:13;1022.46;;;18.43;52.67
64230;BME280;50547;49.498;0.092;2023-05-19T09:08:42;1022.42;;;18.84;51.34
64230;BME280;50547;49.498;0.092;2023-05-19T09:11:12;1022.44;;;19.20;49.49
64230;BME280;50547;49.498;0.092;2023-05-19T09:13:41;1022.46;;;18.97;50.34
64230;BME280;50547;49.498;0.092;2023-05-19T09:16:10;1022.50;;;18.92;50.79
64230;BME280;50547;49.498;0.092;2023-05-19T09:18:42;1022.50;;;18.73;51.44
64230;BME280;50547;49.498;0.092;2023-05-19T09:21:26;1022.40;;;19.26;48.70
64230;BME280;50547;49.498;0.092;2023-05-19T09:23:56;1022.42;;;19.43;48.46
64230;BME280;50547;49.498;0.092;2023-05-19T09:26:35;1022.44;;;19.38;47.17
64230;BME280;50547;49.498;0.092;2023-05-19T09:29:12;1022.52;;;19.01;47.16
64230;BME280;50547;49.498;0.092;2023-05-19T09:31:47;1022.56;;;18.80;49.44
64230;BME280;50547;49.498;0.092;2023-05-19T09:34:17;1022.46;;;18.44;50.10
64230;BME280;50547;49.498;0.092;2023-05-19T09:36:46;1022.50;;;18.39;49.98
64230;BME280;50547;49.498;0.092;2023-05-19T09:39:16;1022.54;;;18.50;50.36
64230;BME280;50547;49.498;0.092;2023-05-19T09:41:46;1022.54;;;18.54;49.39
64230;BME280;50547;49.498;0.092;2023-05-19T09:44:21;1022.56;;;18.30;51.89
64230;BME280;50547;49.498;0.092;2023-05-19T09:46:52;1022.44;;;18.43;50.38
64230;BME280;50547;49.498;0.092;2023-05-19T09:49:22;1022.54;;;18.65;49.16
64230;BME280;50547;49.498;0.092;2023-05-19T09:51:53;1022.56;;;18.21;53.21
64230;BME280;50547;49.498;0.092;2023-05-19T09:54:23;1022.46;;;18.37;51.63
64230;BME280;50547;49.498;0.092;2023-05-19T09:56:57;1022.54;;;17.93;52.41
64230;BME280;50547;49.498;0.092;2023-05-19T09:59:27;1022.48;;;18.04;50.98
64230;BME280;50547;49.498;0.092;2023-05-19T10:01:58;1022.48;;;17.92;49.89
64230;BME280;50547;49.498;0.092;2023-05-19T10:04:28;1022.44;;;17.84;52.61
64230;BME280;50547;49.498;0.092;2023-05-19T10:06:58;1022.44;;;18.26;51.79
64230;BME280;50547;49.498;0.092;2023-05-19T10:09:28;1022.48;;;18.44;51.16
64230;BME280;50547;49.498;0.092;2023-05-19T10:11:58;1022.54;;;18.52;53.14
64230;BME280;50547;49.498;0.092;2023-05-19T10:14:28;1022.50;;;17.99;54.48
64230;BME280;50547;49.498;0.092;2023-05-19T10:16:57;1022.56;;;17.72;53.92
64230;BME280;50547;49.498;0.092;2023-05-19T10:19:27;1022.48;;;17.96;51.97
64230;BME280;50547;49.498;0.092;2023-05-19T10:21:57;1022.50;;;17.88;50.67
64230;BME280;50547;49.498;0.092;2023-05-19T10:24:26;1022.54;;;17.58;51.09
64230;BME280;50547;49.498;0.092;2023-05-19T10:26:58;1022.54;;;18.55;48.21
64230;BME280;50547;49.498;0.092;2023-05-19T10:29:31;1022.52;;;19.00;46.80
64230;BME280;50547;49.498;0.092;2023-05-19T10:32:05;1022.52;;;18.55;58.26
64230;BME280;50547;49.498;0.092;2023-05-19T10:35:08;1022.54;;;18.10;62.38
64230;BME280;50547;49.498;0.092;2023-05-19T10:37:45;1022.56;;;18.21;61.24
64230;BME280;50547;49.498;0.092;2023-05-19T10:40:26;1022.54;;;17.71;64.11
64230;BME280;50547;49.498;0.092;2023-05-19T10:43:00;1022.56;;;18.31;60.43
64230;BME280;50547;49.498;0.092;2023-05-19T10:45:33;1022.50;;;18.60;58.57
64230;BME280;50547;49.498;0.092;2023-05-19T10:48:04;1022.46;;;17.81;63.15
64230;BME280;50547;49.498;0.092;2023-05-19T10:50:35;1022.42;;;18.06;60.94
64230;BME280;50547;49.498;0.092;2023-05-19T10:53:13;1022.46;;;18.12;60.88
64230;BME280;50547;49.498;0.092;2023-05-19T10:55:44;1022.40;;;17.72;64.60
64230;BME280;50547;49.498;0.092;2023-05-19T10:58:14;1022.38;;;17.14;68.29
64230;BME280;50547;49.498;0.092;2023-05-19T11:00:43;1022.40;;;17.44;66.27
64230;BME280;50547;49.498;0.092;2023-05-19T11:03:13;1022.44;;;17.30;65.75
64230;BME280;50547;49.498;0.092;2023-05-19T11:05:43;1022.40;;;17.18;65.96
64230;BME280;50547;49.498;0.092;2023-05-19T11:08:12;1022.52;;;17.30;65.62
64230;BME280;50547;49.498;0.092;2023-05-19T11:10:38;1022.48;;;17.28;65.66
64230;BME280;50547;49.498;0.092;2023-05-19T11:13:18;1022.54;;;17.04;66.71
64230;BME280;50547;49.498;0.092;2023-05-19T11:15:47;1022.57;;;16.93;67.59
64230;BME280;50547;49.498;0.092;2023-05-19T11:18:18;1022.57;;;16.68;68.79
64230;BME280;50547;49.498;0.092;2023-05-19T11:20:54;1022.69;;;16.95;66.45
64230;BME280;50547;49.498;0.092;2023-05-19T11:23:24;1022.65;;;16.44;69.94
64230;BME280;50547;49.498;0.092;2023-05-19T11:25:53;1022.69;;;15.49;74.63
64230;BME280;50547;49.498;0.092;2023-05-19T11:28:23;1022.65;;;15.97;71.08
64230;BME280;50547;49.498;0.092;2023-05-19T11:30:54;1022.63;;;16.12;68.92
64230;BME280;50547;49.498;0.092;2023-05-19T11:33:24;1022.52;;;16.67;65.76
64230;BME280;50547;49.498;0.092;2023-05-19T11:35:55;1022.54;;;17.09;64.12
64230;BME280;50547;49.498;0.092;2023-05-19T11:38:24;1022.57;;;16.59;67.32
64230;BME280;50547;49.498;0.092;2023-05-19T11:40:54;1022.50;;;16.66;67.69
64230;BME280;50547;49.498;0.092;2023-05-19T11:43:24;1022.48;;;16.50;68.05
64230;BME280;50547;49.498;0.092;2023-05-19T11:45:54;1022.42;;;16.71;67.83
64230;BME280;50547;49.498;0.092;2023-05-19T11:48:23;1022.38;;;16.58;68.11
64230;BME280;50547;49.498;0.092;2023-05-19T11:50:54;1022.30;;;17.28;65.10
64230;BME280;50547;49.498;0.092;2023-05-19T11:53:22;1022.28;;;16.76;67.59
64230;BME280;50547;49.498;0.092;2023-05-19T11:55:51;1022.16;;;17.50;63.19
64230;BME280;50547;49.498;0.092;2023-05-19T11:58:24;1022.07;;;17.75;62.63
64230;BME280;50547;49.498;0.092;2023-05-19T12:00:53;1022.10;;;17.48;63.25
64230;BME280;50547;49.498;0.092;2023-05-19T12:03:23;1022.14;;;17.79;60.97
64230;BME280;50547;49.498;0.092;2023-05-19T12:05:52;1022.10;;;17.54;63.17
64230;BME280;50547;49.498;0.092;2023-05-19T12:08:21;1022.12;;;17.53;64.66
64230;BME280;50547;49.498;0.092;2023-05-19T12:10:51;1022.32;;;16.56;69.69
64230;BME280;50547;49.498;0.092;2023-05-19T12:13:21;1022.16;;;16.03;72.37
64230;BME280;50547;49.498;0.092;2023-05-19T12:18:15;1022.16;;;15.69;72.30
64230;BME280;50547;49.498;0.092;2023-05-19T12:20:43;1022.24;;;15.92;70.51
64230;BME280;50547;49.498;0.092;2023-05-19T12:23:12;1022.18;;;15.96;69.20
64230;BME280;50547;49.498;0.092;2023-05-19T12:25:42;1022.22;;;16.18;69.02
64230;BME280;50547;49.498;0.092;2023-05-19T12:28:11;1022.22;;;16.12;68.73
64230;BME280;50547;49.498;0.092;2023-05-19T12:30:46;1022.22;;;16.11;69.12
64230;BME280;50547;49.498;0.092;2023-05-19T12:33:16;1022.18;;;16.17;69.32
64230;BME280;50547;49.498;0.092;2023-05-19T12:35:45;1022.18;;;16.10;69.68
64230;BME280;50547;49.498;0.092;2023-05-19T12:38:15;1022.16;;;15.68;71.27
64230;BME280;50547;49.498;0.092;2023-05-19T12:40:44;1022.20;;;15.96;69.58
64230;BME280;50547;49.498;0.092;2023-05-19T12:43:21;1022.22;;;16.13;69.09
64230;BME280;50547;49.498;0.092;2023-05-19T12:45:50;1022.14;;;16.29;67.50
64230;BME280;50547;49.498;0.092;2023-05-19T12:48:21;1022.12;;;16.62;66.65
64230;BME280;50547;49.498;0.092;2023-05-19T12:50:51;1022.09;;;16.63;66.20
64230;BME280;50547;49.498;0.092;2023-05-19T12:53:20;1022.05;;;16.68;67.10
64230;BME280;50547;49.498;0.092;2023-05-19T12:55:50;1022.01;;;16.47;68.48
64230;BME280;50547;49.498;0.092;2023-05-19T12:58:20;1021.95;;;16.72;66.30
64230;BME280;50547;49.498;0.092;2023-05-19T13:00:50;1021.91;;;17.31;64.01
64230;BME280;50547;49.498;0.092;2023-05-19T13:03:24;1021.91;;;18.24;60.81
64230;BME280;50547;49.498;0.092;2023-05-19T13:05:53;1021.91;;;17.79;63.25
64230;BME280;50547;49.498;0.092;2023-05-19T13:08:23;1021.85;;;17.34;66.05
64230;BME280;50547;49.498;0.092;2023-05-19T13:10:50;1021.93;;;17.68;64.46
64230;BME280;50547;49.498;0.092;2023-05-19T13:13:19;1021.91;;;19.00;57.80
64230;BME280;50547;49.498;0.092;2023-05-19T13:15:48;1021.85;;;19.71;55.25
64230;BME280;50547;49.498;0.092;2023-05-19T13:18:18;1021.89;;;17.75;66.11
64230;BME280;50547;49.498;0.092;2023-05-19T13:20:47;1021.91;;;17.23;69.52
64230;BME280;50547;49.498;0.092;2023-05-19T13:23:16;1021.89;;;16.31;72.49
64230;BME280;50547;49.498;0.092;2023-05-19T13:25:45;1021.87;;;16.30;70.73
64230;BME280;50547;49.498;0.092;2023-05-19T13:28:15;1021.85;;;16.16;69.88
64230;BME280;50547;49.498;0.092;2023-05-19T13:30:44;1021.83;;;16.42;67.80